sensor_id;sensor_type;location;lat;lon;timestamp;temperature;humidity
46139;DHT22;32398;49.112;8.598;2023-04-12T00:01:49;11.50;71.30
46139;DHT22;32398;49.112;8.598;2023-04-12T00:04:15;11.50;71.20
46139;DHT22;32398;49.112;8.598;2023-04-12T00:06:42;11.50;71.40
46139;DHT22;32398;49.112;8.598;2023-04-12T00:09:13;11.50;71.40
46139;DHT22;32398;49.112;8.598;2023-04-12T00:11:40;11.50;71.70
46139;DHT22;32398;49.112;8.598;2023-04-12T00:14:06;11.50;71.90
46139;DHT22;32398;49.112;8.598;2023-04-12T00:16:34;11.50;72.20
46139;DHT22;32398;49.112;8.598;2023-04-12T00:19:02;11.40;72.30
46139;DHT22;32398;49.112;8.598;2023-04-12T00:21:29;11.40;72.50
46139;DHT22;32398;49.112;8.598;2023-04-12T00:23:55;11.40;72.80
46139;DHT22;32398;49.112;8.598;2023-04-12T00:26:22;11.40;73.00
46139;DHT22;32398;49.112;8.598;2023-04-12T00:28:49;11.40;73.20
46139;DHT22;32398;49.112;8.598;2023-04-12T00:31:16;11.40;73.40
46139;DHT22;32398;49.112;8.598;2023-04-12T00:33:44;11.30;73.50
46139;DHT22;32398;49.112;8.598;2023-04-12T00:36:10;11.40;73.80
46139;DHT22;32398;49.112;8.598;2023-04-12T00:38:37;11.30;74.00
46139;DHT22;32398;49.112;8.598;2023-04-12T00:41:03;11.30;74.20
46139;DHT22;32398;49.112;8.598;2023-04-12T00:43:30;11.30;74.50
46139;DHT22;32398;49.112;8.598;2023-04-12T00:45:57;11.30;74.80
46139;DHT22;32398;49.112;8.598;2023-04-12T00:48:23;11.30;75.00
46139;DHT22;32398;49.112;8.598;2023-04-12T00:50:52;11.30;75.30
46139;DHT22;32398;49.112;8.598;2023-04-12T00:53:20;11.30;75.50
46139;DHT22;32398;49.112;8.598;2023-04-12T00:55:48;11.20;75.70
46139;DHT22;32398;49.112;8.598;2023-04-12T00:58:14;11.20;75.90
46139;DHT22;32398;49.112;8.598;2023-04-12T01:00:41;11.20;76.10
46139;DHT22;32398;49.112;8.598;2023-04-12T01:03:14;11.20;76.30
46139;DHT22;32398;49.112;8.598;2023-04-12T01:05:42;11.20;76.60
46139;DHT22;32398;49.112;8.598;2023-04-12T01:08:13;11.20;76.70
46139;DHT22;32398;49.112;8.598;2023-04-12T01:10:43;11.20;76.80
46139;DHT22;32398;49.112;8.598;2023-04-12T01:13:13;11.20;77.00
46139;DHT22;32398;49.112;8.598;2023-04-12T01:15:49;11.20;77.10
46139;DHT22;32398;49.112;8.598;2023-04-12T01:18:18;11.20;77.30
46139;DHT22;32398;49.112;8.598;2023-04-12T01:20:47;11.10;77.40
46139;DHT22;32398;49.112;8.598;2023-04-12T01:26:14;11.10;77.60
46139;DHT22;32398;49.112;8.598;2023-04-12T01:28:48;11.10;77.70
46139;DHT22;32398;49.112;8.598;2023-04-12T01:31:17;11.10;77.80
46139;DHT22;32398;49.112;8.598;2023-04-12T01:33:44;11.10;77.90
46139;DHT22;32398;49.112;8.598;2023-04-12T01:36:12;11.10;78.10
46139;DHT22;32398;49.112;8.598;2023-04-12T01:38:39;11.10;78.20
46139;DHT22;32398;49.112;8.598;2023-04-12T01:41:06;11.00;78.30
46139;DHT22;32398;49.112;8.598;2023-04-12T01:43:38;11.10;78.50
46139;DHT22;32398;49.112;8.598;2023-04-12T01:46:06;11.00;78.60
46139;DHT22;32398;49.112;8.598;2023-04-12T01:48:33;11.00;78.70
46139;DHT22;32398;49.112;8.598;2023-04-12T01:51:02;11.00;78.80
46139;DHT22;32398;49.112;8.598;2023-04-12T01:53:32;11.00;78.90
46139;DHT22;32398;49.112;8.598;2023-04-12T01:56:07;11.00;79.10
46139;DHT22;32398;49.112;8.598;2023-04-12T01:58:34;11.00;79.20
46139;DHT22;32398;49.112;8.598;2023-04-12T02:01:02;11.00;79.30
46139;DHT22;32398;49.112;8.598;2023-04-12T02:03:31;10.90;79.30
46139;DHT22;32398;49.112;8.598;2023-04-12T02:05:58;10.90;79.40
46139;DHT22;32398;49.112;8.598;2023-04-12T02:08:25;11.00;79.50
46139;DHT22;32398;49.112;8.598;2023-04-12T02:10:51;10.90;79.50
46139;DHT22;32398;49.112;8.598;2023-04-12T02:13:19;10.90;79.60
46139;DHT22;32398;49.112;8.598;2023-04-12T02:15:45;10.90;79.70
46139;DHT22;32398;49.112;8.598;2023-04-12T02:18:12;10.90;79.80
46139;DHT22;32398;49.112;8.598;2023-04-12T02:20:43;10.90;79.90
46139;DHT22;32398;49.112;8.598;2023-04-12T02:23:09;10.90;80.10
46139;DHT22;32398;49.112;8.598;2023-04-12T02:25:36;10.80;80.20
46139;DHT22;32398;49.112;8.598;2023-04-12T02:28:03;10.80;80.30
46139;DHT22;32398;49.112;8.598;2023-04-12T02:30:30;10.80;80.30
46139;DHT22;32398;49.112;8.598;2023-04-12T02:32:57;10.80;80.40
46139;DHT22;32398;49.112;8.598;2023-04-12T02:35:24;10.80;80.50
46139;DHT22;32398;49.112;8.598;2023-04-12T02:37:51;10.80;80.60
46139;DHT22;32398;49.112;8.598;2023-04-12T02:40:19;10.80;80.70
46139;DHT22;32398;49.112;8.598;2023-04-12T02:42:46;10.70;80.80
46139;DHT22;32398;49.112;8.598;2023-04-12T02:45:12;10.80;80.80
46139;DHT22;32398;49.112;8.598;2023-04-12T02:47:39;10.70;80.80
46139;DHT22;32398;49.112;8.598;2023-04-12T02:50:06;10.80;80.90
46139;DHT22;32398;49.112;8.598;2023-04-12T02:52:32;10.70;81.00
46139;DHT22;32398;49.112;8.598;2023-04-12T02:55:00;10.70;81.10
46139;DHT22;32398;49.112;8.598;2023-04-12T02:57:28;10.70;81.20
46139;DHT22;32398;49.112;8.598;2023-04-12T02:59:54;10.70;81.30
46139;DHT22;32398;49.112;8.598;2023-04-12T03:02:21;10.70;81.40
46139;DHT22;32398;49.112;8.598;2023-04-12T03:04:47;10.70;81.40
46139;DHT22;32398;49.112;8.598;2023-04-12T03:07:15;10.70;81.50
46139;DHT22;32398;49.112;8.598;2023-04-12T03:09:42;10.60;81.50
46139;DHT22;32398;49.112;8.598;2023-04-12T03:12:10;10.70;81.70
46139;DHT22;32398;49.112;8.598;2023-04-12T03:14:36;10.60;82.00
46139;DHT22;32398;49.112;8.598;2023-04-12T03:17:03;10.60;81.70
46139;DHT22;32398;49.112;8.598;2023-04-12T03:19:30;10.60;81.80
46139;DHT22;32398;49.112;8.598;2023-04-12T03:21:59;10.60;81.80
46139;DHT22;32398;49.112;8.598;2023-04-12T03:24:25;10.50;81.80
46139;DHT22;32398;49.112;8.598;2023-04-12T03:26:52;10.60;82.00
46139;DHT22;32398;49.112;8.598;2023-04-12T03:29:20;10.60;82.00
46139;DHT22;32398;49.112;8.598;2023-04-12T03:31:47;10.50;82.80
46139;DHT22;32398;49.112;8.598;2023-04-12T03:34:13;10.50;82.20
46139;DHT22;32398;49.112;8.598;2023-04-12T03:36:40;10.50;82.20
46139;DHT22;32398;49.112;8.598;2023-04-12T03:39:07;10.50;82.30
46139;DHT22;32398;49.112;8.598;2023-04-12T03:41:33;10.50;82.30
46139;DHT22;32398;49.112;8.598;2023-04-12T03:44:00;10.50;82.30
46139;DHT22;32398;49.112;8.598;2023-04-12T03:46:28;10.50;82.40
46139;DHT22;32398;49.112;8.598;2023-04-12T03:48:54;10.50;82.50
46139;DHT22;32398;49.112;8.598;2023-04-12T03:51:21;10.50;82.50
46139;DHT22;32398;49.112;8.598;2023-04-12T03:53:51;10.50;82.60
46139;DHT22;32398;49.112;8.598;2023-04-12T03:56:17;10.50;82.70
46139;DHT22;32398;49.112;8.598;2023-04-12T03:58:45;10.90;83.00
46139;DHT22;32398;49.112;8.598;2023-04-12T04:01:11;10.40;82.70
46139;DHT22;32398;49.112;8.598;2023-04-12T04:03:39;10.40;82.80
46139;DHT22;32398;49.112;8.598;2023-04-12T04:06:06;10.40;82.90
46139;DHT22;32398;49.112;8.598;2023-04-12T04:08:33;10.40;83.00
46139;DHT22;32398;49.112;8.598;2023-04-12T04:11:00;10.40;83.00
46139;DHT22;32398;49.112;8.598;2023-04-12T04:13:27;10.40;83.00
46139;DHT22;32398;49.112;8.598;2023-04-12T04:15:57;10.30;83.00
46139;DHT22;32398;49.112;8.598;2023-04-12T04:18:24;10.40;83.20
46139;DHT22;32398;49.112;8.598;2023-04-12T04:20:52;10.40;83.30
46139;DHT22;32398;49.112;8.598;2023-04-12T04:23:18;10.30;83.30
46139;DHT22;32398;49.112;8.598;2023-04-12T04:25:46;10.30;83.40
46139;DHT22;32398;49.112;8.598;2023-04-12T04:28:13;10.30;83.40
46139;DHT22;32398;49.112;8.598;2023-04-12T04:30:40;10.30;83.50
46139;DHT22;32398;49.112;8.598;2023-04-12T04:33:10;10.30;83.60
46139;DHT22;32398;49.112;8.598;2023-04-12T04:35:37;10.30;83.70
46139;DHT22;32398;49.112;8.598;2023-04-12T04:38:05;10.30;83.80
46139;DHT22;32398;49.112;8.598;2023-04-12T04:40:32;10.30;83.80
46139;DHT22;32398;49.112;8.598;2023-04-12T04:42:58;10.30;83.80
46139;DHT22;32398;49.112;8.598;2023-04-12T04:45:25;10.20;83.90
46139;DHT22;32398;49.112;8.598;2023-04-12T04:47:51;10.20;84.10
46139;DHT22;32398;49.112;8.598;2023-04-12T04:50:19;10.20;84.20
46139;DHT22;32398;49.112;8.598;2023-04-12T04:52:47;10.20;84.30
46139;DHT22;32398;49.112;8.598;2023-04-12T04:55:15;10.20;84.30
46139;DHT22;32398;49.112;8.598;2023-04-12T04:57:42;10.20;84.40
46139;DHT22;32398;49.112;8.598;2023-04-12T05:00:09;10.20;84.50
46139;DHT22;32398;49.112;8.598;2023-04-12T05:02:37;10.20;84.60
46139;DHT22;32398;49.112;8.598;2023-04-12T05:05:07;10.20;84.70
46139;DHT22;32398;49.112;8.598;2023-04-12T05:07:33;10.20;84.80
46139;DHT22;32398;49.112;8.598;2023-04-12T05:10:01;10.10;84.80
46139;DHT22;32398;49.112;8.598;2023-04-12T05:12:28;10.10;84.80
46139;DHT22;32398;49.112;8.598;2023-04-12T05:14:55;10.10;84.90
46139;DHT22;32398;49.112;8.598;2023-04-12T05:17:22;10.10;85.00
46139;DHT22;32398;49.112;8.598;2023-04-12T05:19:48;10.10;85.00
46139;DHT22;32398;49.112;8.598;2023-04-12T05:22:15;10.10;85.10
46139;DHT22;32398;49.112;8.598;2023-04-12T05:24:44;10.10;85.10
46139;DHT22;32398;49.112;8.598;2023-04-12T05:27:11;10.10;85.20
46139;DHT22;32398;49.112;8.598;2023-04-12T05:29:39;10.10;85.60
46139;DHT22;32398;49.112;8.598;2023-04-12T05:32:05;10.00;85.20
46139;DHT22;32398;49.112;8.598;2023-04-12T05:34:32;10.10;85.30
46139;DHT22;32398;49.112;8.598;2023-04-12T05:36:58;10.00;85.30
46139;DHT22;32398;49.112;8.598;2023-04-12T05:39:25;10.00;85.30
46139;DHT22;32398;49.112;8.598;2023-04-12T05:41:52;10.00;85.40
46139;DHT22;32398;49.112;8.598;2023-04-12T05:44:18;10.00;85.40
46139;DHT22;32398;49.112;8.598;2023-04-12T05:46:46;10.00;85.80
46139;DHT22;32398;49.112;8.598;2023-04-12T05:49:13;10.00;85.50
46139;DHT22;32398;49.112;8.598;2023-04-12T05:51:40;10.00;85.50
46139;DHT22;32398;49.112;8.598;2023-04-12T05:54:06;10.00;85.70
46139;DHT22;32398;49.112;8.598;2023-04-12T05:56:33;10.00;85.70
46139;DHT22;32398;49.112;8.598;2023-04-12T05:59:00;10.00;85.80
46139;DHT22;32398;49.112;8.598;2023-04-12T06:01:26;10.00;85.80
46139;DHT22;32398;49.112;8.598;2023-04-12T06:03:56;10.00;85.90
46139;DHT22;32398;49.112;8.598;2023-04-12T06:06:23;10.00;86.00
46139;DHT22;32398;49.112;8.598;2023-04-12T06:08:54;10.00;86.10
46139;DHT22;32398;49.112;8.598;2023-04-12T06:11:22;9.90;86.10
46139;DHT22;32398;49.112;8.598;2023-04-12T06:13:48;10.00;86.20
46139;DHT22;32398;49.112;8.598;2023-04-12T06:16:15;10.00;86.30
46139;DHT22;32398;49.112;8.598;2023-04-12T06:18:41;10.00;86.30
46139;DHT22;32398;49.112;8.598;2023-04-12T06:21:09;9.90;86.30
46139;DHT22;32398;49.112;8.598;2023-04-12T06:23:36;9.90;86.40
46139;DHT22;32398;49.112;8.598;2023-04-12T06:26:02;9.90;86.40
46139;DHT22;32398;49.112;8.598;2023-04-12T06:28:29;9.90;86.50
46139;DHT22;32398;49.112;8.598;2023-04-12T06:30:56;9.90;86.50
46139;DHT22;32398;49.112;8.598;2023-04-12T06:33:22;9.90;86.60
46139;DHT22;32398;49.112;8.598;2023-04-12T06:35:49;9.90;86.60
46139;DHT22;32398;49.112;8.598;2023-04-12T06:38:17;9.90;86.70
46139;DHT22;32398;49.112;8.598;2023-04-12T06:40:43;9.90;86.90
46139;DHT22;32398;49.112;8.598;2023-04-12T06:43:10;9.90;86.90
46139;DHT22;32398;49.112;8.598;2023-04-12T06:45:37;9.90;87.10
46139;DHT22;32398;49.112;8.598;2023-04-12T06:48:04;9.90;87.10
46139;DHT22;32398;49.112;8.598;2023-04-12T06:50:30;9.90;87.20
46139;DHT22;32398;49.112;8.598;2023-04-12T06:52:57;9.90;87.20
46139;DHT22;32398;49.112;8.598;2023-04-12T06:55:24;9.90;87.30
46139;DHT22;32398;49.112;8.598;2023-04-12T06:57:53;9.90;87.40
46139;DHT22;32398;49.112;8.598;2023-04-12T07:00:20;9.90;87.50
46139;DHT22;32398;49.112;8.598;2023-04-12T07:02:46;9.90;87.60
46139;DHT22;32398;49.112;8.598;2023-04-12T07:05:13;9.90;87.70
46139;DHT22;32398;49.112;8.598;2023-04-12T07:07:40;9.90;87.70
46139;DHT22;32398;49.112;8.598;2023-04-12T07:10:06;9.90;87.80
46139;DHT22;32398;49.112;8.598;2023-04-12T07:12:34;9.90;87.80
46139;DHT22;32398;49.112;8.598;2023-04-12T07:15:01;9.90;87.90
46139;DHT22;32398;49.112;8.598;2023-04-12T07:17:27;9.90;87.90
46139;DHT22;32398;49.112;8.598;2023-04-12T07:19:54;9.90;88.00
46139;DHT22;32398;49.112;8.598;2023-04-12T07:22:21;9.90;88.10
46139;DHT22;32398;49.112;8.598;2023-04-12T07:24:48;9.90;88.10
46139;DHT22;32398;49.112;8.598;2023-04-12T07:27:14;9.90;88.20
46139;DHT22;32398;49.112;8.598;2023-04-12T07:29:42;9.90;88.30
46139;DHT22;32398;49.112;8.598;2023-04-12T07:32:09;9.90;88.40
46139;DHT22;32398;49.112;8.598;2023-04-12T07:34:36;9.90;88.40
46139;DHT22;32398;49.112;8.598;2023-04-12T07:37:03;9.90;88.50
46139;DHT22;32398;49.112;8.598;2023-04-12T07:39:30;9.90;88.50
46139;DHT22;32398;49.112;8.598;2023-04-12T07:41:57;9.90;88.70
46139;DHT22;32398;49.112;8.598;2023-04-12T07:44:23;9.90;88.80
46139;DHT22;32398;49.112;8.598;2023-04-12T07:46:51;10.00;89.00
46139;DHT22;32398;49.112;8.598;2023-04-12T07:49:18;9.90;89.00
46139;DHT22;32398;49.112;8.598;2023-04-12T07:51:44;9.90;89.20
46139;DHT22;32398;49.112;8.598;2023-04-12T07:54:11;10.00;89.40
46139;DHT22;32398;49.112;8.598;2023-04-12T07:56:38;10.00;89.40
46139;DHT22;32398;49.112;8.598;2023-04-12T07:59:04;10.00;89.40
46139;DHT22;32398;49.112;8.598;2023-04-12T08:01:31;9.90;89.40
46139;DHT22;32398;49.112;8.598;2023-04-12T08:03:59;9.90;89.60
46139;DHT22;32398;49.112;8.598;2023-04-12T08:06:26;9.90;89.60
46139;DHT22;32398;49.112;8.598;2023-04-12T08:08:52;10.00;89.70
46139;DHT22;32398;49.112;8.598;2023-04-12T08:11:19;10.00;89.90
46139;DHT22;32398;49.112;8.598;2023-04-12T08:13:45;10.00;90.00
46139;DHT22;32398;49.112;8.598;2023-04-12T08:16:12;10.00;90.00
46139;DHT22;32398;49.112;8.598;2023-04-12T08:18:38;10.00;90.00
46139;DHT22;32398;49.112;8.598;2023-04-12T08:21:06;10.00;90.00
46139;DHT22;32398;49.112;8.598;2023-04-12T08:23:33;10.00;90.10
46139;DHT22;32398;49.112;8.598;2023-04-12T08:25:59;10.00;90.10
46139;DHT22;32398;49.112;8.598;2023-04-12T08:28:28;10.00;90.40
46139;DHT22;32398;49.112;8.598;2023-04-12T08:30:55;10.00;90.40
46139;DHT22;32398;49.112;8.598;2023-04-12T08:33:22;10.00;90.30
46139;DHT22;32398;49.112;8.598;2023-04-12T08:35:48;10.10;90.30
46139;DHT22;32398;49.112;8.598;2023-04-12T08:38:18;10.00;90.10
46139;DHT22;32398;49.112;8.598;2023-04-12T08:40:44;10.00;90.10
46139;DHT22;32398;49.112;8.598;2023-04-12T08:43:11;10.10;90.10
46139;DHT22;32398;49.112;8.598;2023-04-12T08:45:38;10.10;90.20
46139;DHT22;32398;49.112;8.598;2023-04-12T08:48:04;10.10;90.10
46139;DHT22;32398;49.112;8.598;2023-04-12T08:50:31;10.10;90.10
46139;DHT22;32398;49.112;8.598;2023-04-12T08:52:58;10.20;90.40
46139;DHT22;32398;49.112;8.598;2023-04-12T08:55:26;10.20;90.20
46139;DHT22;32398;49.112;8.598;2023-04-12T08:57:53;10.20;90.20
46139;DHT22;32398;49.112;8.598;2023-04-12T09:00:20;10.30;90.30
46139;DHT22;32398;49.112;8.598;2023-04-12T09:02:47;10.30;90.30
46139;DHT22;32398;49.112;8.598;2023-04-12T09:05:14;10.30;90.30
46139;DHT22;32398;49.112;8.598;2023-04-12T09:07:40;10.30;90.20
46139;DHT22;32398;49.112;8.598;2023-04-12T09:10:07;10.30;90.20
46139;DHT22;32398;49.112;8.598;2023-04-12T09:12:35;10.30;90.20
46139;DHT22;32398;49.112;8.598;2023-04-12T09:15:10;10.30;90.10
46139;DHT22;32398;49.112;8.598;2023-04-12T09:17:37;10.30;90.00
46139;DHT22;32398;49.112;8.598;2023-04-12T09:22:58;10.40;90.00
46139;DHT22;32398;49.112;8.598;2023-04-12T09:25:36;10.40;90.10
46139;DHT22;32398;49.112;8.598;2023-04-12T09:28:04;10.40;90.30
46139;DHT22;32398;49.112;8.598;2023-04-12T09:30:43;10.40;90.40
46139;DHT22;32398;49.112;8.598;2023-04-12T09:33:09;10.40;90.50
46139;DHT22;32398;49.112;8.598;2023-04-12T09:35:36;10.40;90.60
46139;DHT22;32398;49.112;8.598;2023-04-12T09:38:05;10.40;90.70
46139;DHT22;32398;49.112;8.598;2023-04-12T09:40:32;10.40;91.00
46139;DHT22;32398;49.112;8.598;2023-04-12T09:43:00;10.40;91.10
46139;DHT22;32398;49.112;8.598;2023-04-12T09:45:31;10.50;91.20
46139;DHT22;32398;49.112;8.598;2023-04-12T09:47:57;10.50;91.20
46139;DHT22;32398;49.112;8.598;2023-04-12T09:50:25;10.50;91.20
46139;DHT22;32398;49.112;8.598;2023-04-12T09:52:53;10.50;91.30
46139;DHT22;32398;49.112;8.598;2023-04-12T09:55:20;10.50;91.40
46139;DHT22;32398;49.112;8.598;2023-04-12T09:57:46;10.60;91.60
46139;DHT22;32398;49.112;8.598;2023-04-12T10:00:15;10.60;91.70
46139;DHT22;32398;49.112;8.598;2023-04-12T10:02:44;10.60;91.70
46139;DHT22;32398;49.112;8.598;2023-04-12T10:05:11;10.70;91.90
46139;DHT22;32398;49.112;8.598;2023-04-12T10:07:38;10.70;91.90
46139;DHT22;32398;49.112;8.598;2023-04-12T10:10:06;10.70;91.90
46139;DHT22;32398;49.112;8.598;2023-04-12T10:12:33;10.70;91.90
46139;DHT22;32398;49.112;8.598;2023-04-12T10:15:03;10.70;92.00
46139;DHT22;32398;49.112;8.598;2023-04-12T10:17:31;10.70;92.00
46139;DHT22;32398;49.112;8.598;2023-04-12T10:19:59;10.80;92.20
46139;DHT22;32398;49.112;8.598;2023-04-12T10:22:26;10.80;92.40
46139;DHT22;32398;49.112;8.598;2023-04-12T10:24:52;10.90;92.50
46139;DHT22;32398;49.112;8.598;2023-04-12T10:27:23;10.80;92.60
46139;DHT22;32398;49.112;8.598;2023-04-12T10:29:50;10.90;92.70
46139;DHT22;32398;49.112;8.598;2023-04-12T10:32:17;10.90;92.60
46139;DHT22;32398;49.112;8.598;2023-04-12T10:34:48;10.90;92.70
46139;DHT22;32398;49.112;8.598;2023-04-12T10:37:16;10.90;92.90
46139;DHT22;32398;49.112;8.598;2023-04-12T10:39:43;11.00;92.80
46139;DHT22;32398;49.112;8.598;2023-04-12T10:42:18;11.00;92.80
46139;DHT22;32398;49.112;8.598;2023-04-12T10:44:46;11.00;92.90
46139;DHT22;32398;49.112;8.598;2023-04-12T10:47:13;11.00;92.90
46139;DHT22;32398;49.112;8.598;2023-04-12T10:49:40;11.10;93.10
46139;DHT22;32398;49.112;8.598;2023-04-12T10:52:28;11.10;93.30
46139;DHT22;32398;49.112;8.598;2023-04-12T10:54:55;11.20;93.20
46139;DHT22;32398;49.112;8.598;2023-04-12T10:57:43;11.10;93.10
46139;DHT22;32398;49.112;8.598;2023-04-12T11:00:11;11.10;93.10
46139;DHT22;32398;49.112;8.598;2023-04-12T11:03:02;11.20;93.20
46139;DHT22;32398;49.112;8.598;2023-04-12T11:05:29;11.20;93.20
46139;DHT22;32398;49.112;8.598;2023-04-12T11:07:57;11.30;93.40
46139;DHT22;32398;49.112;8.598;2023-04-12T11:10:25;11.30;93.40
46139;DHT22;32398;49.112;8.598;2023-04-12T11:12:51;11.30;93.40
46139;DHT22;32398;49.112;8.598;2023-04-12T11:15:24;11.40;93.60
46139;DHT22;32398;49.112;8.598;2023-04-12T11:17:54;11.40;93.70
46139;DHT22;32398;49.112;8.598;2023-04-12T11:20:20;11.50;93.70
46139;DHT22;32398;49.112;8.598;2023-04-12T11:22:48;11.50;93.50
46139;DHT22;32398;49.112;8.598;2023-04-12T11:25:16;11.50;93.30
46139;DHT22;32398;49.112;8.598;2023-04-12T11:27:47;11.50;93.20
46139;DHT22;32398;49.112;8.598;2023-04-12T11:30:14;11.50;93.00
46139;DHT22;32398;49.112;8.598;2023-04-12T11:32:43;11.60;92.90
46139;DHT22;32398;49.112;8.598;2023-04-12T11:35:09;11.60;92.80
46139;DHT22;32398;49.112;8.598;2023-04-12T11:37:36;11.60;92.80
46139;DHT22;32398;49.112;8.598;2023-04-12T11:40:05;11.70;92.80
46139;DHT22;32398;49.112;8.598;2023-04-12T11:42:33;11.70;92.70
46139;DHT22;32398;49.112;8.598;2023-04-12T11:45:00;11.70;92.60
46139;DHT22;32398;49.112;8.598;2023-04-12T11:47:27;11.70;92.60
46139;DHT22;32398;49.112;8.598;2023-04-12T11:49:54;11.70;92.50
46139;DHT22;32398;49.112;8.598;2023-04-12T11:52:24;11.80;92.70
46139;DHT22;32398;49.112;8.598;2023-04-12T11:54:52;11.90;92.30
46139;DHT22;32398;49.112;8.598;2023-04-12T11:57:22;11.90;92.20
46139;DHT22;32398;49.112;8.598;2023-04-12T11:59:51;11.90;92.00
46139;DHT22;32398;49.112;8.598;2023-04-12T12:02:18;11.90;91.90
46139;DHT22;32398;49.112;8.598;2023-04-12T12:04:45;11.90;91.90
46139;DHT22;32398;49.112;8.598;2023-04-12T12:07:12;11.90;91.80
46139;DHT22;32398;49.112;8.598;2023-04-12T12:09:39;12.00;91.80
46139;DHT22;32398;49.112;8.598;2023-04-12T12:12:06;12.00;91.60
46139;DHT22;32398;49.112;8.598;2023-04-12T12:14:33;12.00;91.50
46139;DHT22;32398;49.112;8.598;2023-04-12T12:17:08;12.00;91.40
46139;DHT22;32398;49.112;8.598;2023-04-12T12:19:35;12.10;91.30
46139;DHT22;32398;49.112;8.598;2023-04-12T12:22:06;12.10;91.20
46139;DHT22;32398;49.112;8.598;2023-04-12T12:24:32;12.10;91.20
46139;DHT22;32398;49.112;8.598;2023-04-12T12:27:00;12.10;91.10
46139;DHT22;32398;49.112;8.598;2023-04-12T12:29:32;12.10;91.00
46139;DHT22;32398;49.112;8.598;2023-04-12T12:31:59;12.20;91.00
46139;DHT22;32398;49.112;8.598;2023-04-12T12:34:31;12.20;90.90
46139;DHT22;32398;49.112;8.598;2023-04-12T12:36:58;12.20;90.80
46139;DHT22;32398;49.112;8.598;2023-04-12T12:39:25;12.30;90.80
46139;DHT22;32398;49.112;8.598;2023-04-12T12:41:52;12.20;90.70
46139;DHT22;32398;49.112;8.598;2023-04-12T12:44:18;12.30;90.70
46139;DHT22;32398;49.112;8.598;2023-04-12T12:46:45;12.30;90.60
46139;DHT22;32398;49.112;8.598;2023-04-12T12:49:11;12.30;90.60
46139;DHT22;32398;49.112;8.598;2023-04-12T12:51:40;12.30;90.50
46139;DHT22;32398;49.112;8.598;2023-04-12T12:54:06;12.30;90.40
46139;DHT22;32398;49.112;8.598;2023-04-12T12:56:33;12.30;90.20
46139;DHT22;32398;49.112;8.598;2023-04-12T12:59:00;12.40;90.20
46139;DHT22;32398;49.112;8.598;2023-04-12T13:01:26;12.40;90.10
46139;DHT22;32398;49.112;8.598;2023-04-12T13:03:53;12.40;90.00
46139;DHT22;32398;49.112;8.598;2023-04-12T13:06:20;12.40;90.00
46139;DHT22;32398;49.112;8.598;2023-04-12T13:08:48;12.40;89.80
46139;DHT22;32398;49.112;8.598;2023-04-12T13:11:16;12.40;89.70
46139;DHT22;32398;49.112;8.598;2023-04-12T13:13:43;12.50;89.50
46139;DHT22;32398;49.112;8.598;2023-04-12T13:16:09;12.50;89.20
46139;DHT22;32398;49.112;8.598;2023-04-12T13:18:36;12.50;89.00
46139;DHT22;32398;49.112;8.598;2023-04-12T13:21:02;12.50;89.00
46139;DHT22;32398;49.112;8.598;2023-04-12T13:23:29;12.60;89.20
46139;DHT22;32398;49.112;8.598;2023-04-12T13:25:57;12.60;89.20
46139;DHT22;32398;49.112;8.598;2023-04-12T13:28:23;12.60;89.10
46139;DHT22;32398;49.112;8.598;2023-04-12T13:30:50;12.70;88.90
46139;DHT22;32398;49.112;8.598;2023-04-12T13:33:16;12.70;88.90
46139;DHT22;32398;49.112;8.598;2023-04-12T13:35:43;12.70;89.00
46139;DHT22;32398;49.112;8.598;2023-04-12T13:38:10;12.70;89.10
46139;DHT22;32398;49.112;8.598;2023-04-12T13:40:36;12.70;89.00
46139;DHT22;32398;49.112;8.598;2023-04-12T13:43:04;12.70;89.00
46139;DHT22;32398;49.112;8.598;2023-04-12T13:45:32;12.80;89.00
46139;DHT22;32398;49.112;8.598;2023-04-12T13:48:00;12.80;89.20
46139;DHT22;32398;49.112;8.598;2023-04-12T13:50:26;12.80;89.10
46139;DHT22;32398;49.112;8.598;2023-04-12T13:52:53;12.90;88.90
46139;DHT22;32398;49.112;8.598;2023-04-12T13:55:19;13.00;88.90
46139;DHT22;32398;49.112;8.598;2023-04-12T13:57:46;13.00;88.60
46139;DHT22;32398;49.112;8.598;2023-04-12T14:00:14;13.00;88.30
46139;DHT22;32398;49.112;8.598;2023-04-12T14:02:41;13.10;88.20
46139;DHT22;32398;49.112;8.598;2023-04-12T14:05:08;13.10;87.90
46139;DHT22;32398;49.112;8.598;2023-04-12T14:07:35;13.10;87.80
46139;DHT22;32398;49.112;8.598;2023-04-12T14:10:02;13.10;87.50
46139;DHT22;32398;49.112;8.598;2023-04-12T14:12:28;13.20;87.40
46139;DHT22;32398;49.112;8.598;2023-04-12T14:14:55;13.20;87.30
46139;DHT22;32398;49.112;8.598;2023-04-12T14:17:23;13.10;87.30
46139;DHT22;32398;49.112;8.598;2023-04-12T14:19:49;13.20;87.50
46139;DHT22;32398;49.112;8.598;2023-04-12T14:22:16;13.20;87.60
46139;DHT22;32398;49.112;8.598;2023-04-12T14:24:43;13.20;87.90
46139;DHT22;32398;49.112;8.598;2023-04-12T14:27:09;13.10;89.20
46139;DHT22;32398;49.112;8.598;2023-04-12T14:29:36;13.20;90.20
46139;DHT22;32398;49.112;8.598;2023-04-12T14:32:04;13.10;90.40
46139;DHT22;32398;49.112;8.598;2023-04-12T14:34:32;13.20;91.00
46139;DHT22;32398;49.112;8.598;2023-04-12T14:36:58;13.20;91.00
46139;DHT22;32398;49.112;8.598;2023-04-12T14:39:25;13.10;91.10
46139;DHT22;32398;49.112;8.598;2023-04-12T14:41:52;13.00;91.20
46139;DHT22;32398;49.112;8.598;2023-04-12T14:44:18;13.00;91.20
46139;DHT22;32398;49.112;8.598;2023-04-12T14:46:45;13.00;91.20
46139;DHT22;32398;49.112;8.598;2023-04-12T14:49:12;13.00;91.30
46139;DHT22;32398;49.112;8.598;2023-04-12T14:51:40;12.90;91.40
46139;DHT22;32398;49.112;8.598;2023-04-12T14:54:06;12.80;91.40
46139;DHT22;32398;49.112;8.598;2023-04-12T14:56:33;12.90;91.50
46139;DHT22;32398;49.112;8.598;2023-04-12T14:59:00;12.80;91.50
46139;DHT22;32398;49.112;8.598;2023-04-12T15:01:27;12.80;91.60
46139;DHT22;32398;49.112;8.598;2023-04-12T15:03:54;12.80;91.60
46139;DHT22;32398;49.112;8.598;2023-04-12T15:06:21;12.70;91.60
46139;DHT22;32398;49.112;8.598;2023-04-12T15:08:50;12.70;91.60
46139;DHT22;32398;49.112;8.598;2023-04-12T15:11:18;12.70;91.60
46139;DHT22;32398;49.112;8.598;2023-04-12T15:13:46;12.70;91.60
46139;DHT22;32398;49.112;8.598;2023-04-12T15:16:13;12.60;91.70
46139;DHT22;32398;49.112;8.598;2023-04-12T15:18:40;12.60;91.70
46139;DHT22;32398;49.112;8.598;2023-04-12T15:21:07;12.60;91.80
46139;DHT22;32398;49.112;8.598;2023-04-12T15:23:34;12.60;91.90
46139;DHT22;32398;49.112;8.598;2023-04-12T15:26:02;12.60;91.80
46139;DHT22;32398;49.112;8.598;2023-04-12T15:28:31;12.60;91.80
46139;DHT22;32398;49.112;8.598;2023-04-12T15:30:58;12.50;91.70
46139;DHT22;32398;49.112;8.598;2023-04-12T15:33:25;12.60;91.80
46139;DHT22;32398;49.112;8.598;2023-04-12T15:35:52;12.50;91.90
46139;DHT22;32398;49.112;8.598;2023-04-12T15:38:20;12.60;91.90
46139;DHT22;32398;49.112;8.598;2023-04-12T15:40:47;12.50;92.00